Time;durP1;ratioP1;P1;durP2;ratioP2;P2;SDS_P1;SDS_P2;PMS_P1;PMS_P2;Temp;Humidity;BMP_temperature;BMP_pressure;BME280_temperature;BME280_humidity;BME280_pressure;Samples;Min_cycle;Max_cycle;Signal;HPM_P1;HPM_P2
2021/12/13 00:03:38;;;;;;;8.90;4.82;;;;;;;20.11;43.59;97508.75;10504516;28;20071;-55
2021/12/13 00:09:00;;;;;;;9.32;4.75;;;;;;;20.11;43.73;97499.81;10540850;28;20093;-55
2021/12/13 00:14:27;;;;;;;6.30;4.40;;;;;;;20.12;43.53;97501.41;10506730;28;20453;-55
2021/12/13 00:19:59;;;;;;;9.68;4.35;;;;;;;20.11;43.68;97494.41;10486519;28;20443;-54
2021/12/13 00:25:27;;;;;;;9.27;4.43;;;;;;;20.11;43.46;97499.81;10495778;28;20068;-55
2021/12/13 00:31:10;;;;;;;7.38;4.60;;;;;;;20.11;43.40;97497.09;10494253;28;20185;-55
2021/12/13 00:36:51;;;;;;;8.73;4.72;;;;;;;20.08;43.54;97495.03;10537540;28;20088;-55
2021/12/13 00:42:11;;;;;;;6.32;3.88;;;;;;;20.07;43.48;97488.81;10539939;28;20041;-55
2021/12/13 00:47:33;;;;;;;8.20;4.20;;;;;;;20.07;43.37;97498.81;10516187;28;20070;-55
2021/12/13 00:52:54;;;;;;;7.07;4.00;;;;;;;20.06;43.45;97489.94;10506374;28;20728;-55
2021/12/13 00:58:17;;;;;;;7.35;3.72;;;;;;;20.07;43.26;97504.25;10519519;28;20495;-55
2021/12/13 01:03:57;;;;;;;6.93;4.03;;;;;;;20.04;43.21;97494.84;10545487;28;20052;-55
2021/12/13 01:09:38;;;;;;;6.90;3.85;;;;;;;20.02;43.16;97491.66;10491492;28;20521;-55
2021/12/13 01:15:10;;;;;;;6.40;3.63;;;;;;;20.05;43.22;97501.03;10489153;28;20048;-55
2021/12/13 01:21:12;;;;;;;8.95;3.88;;;;;;;20.03;43.29;97500.56;10504496;28;20044;-56
2021/12/13 01:26:46;;;;;;;7.13;3.90;;;;;;;20.01;43.22;97508.97;10490494;28;20102;-55
2021/12/13 01:32:08;;;;;;;7.30;3.67;;;;;;;20.01;43.17;97510.88;10489618;28;20043;-55
2021/12/13 01:37:30;;;;;;;5.53;3.38;;;;;;;20.00;43.28;97514.72;10516917;28;20067;-54
2021/12/13 01:42:56;;;;;;;7.35;3.47;;;;;;;19.99;43.17;97510.41;10527246;28;20052;-55
2021/12/13 01:48:26;;;;;;;6.80;3.65;;;;;;;19.98;43.12;97512.31;10505089;28;20049;-55
2021/12/13 01:53:50;;;;;;;6.95;3.63;;;;;;;19.97;43.19;97512.63;10505701;28;20051;-55
2021/12/13 02:05:11;;;;;;;7.05;3.50;;;;;;;19.92;43.26;97503.53;10511683;28;20086;-55
2021/12/13 02:10:57;;;;;;;6.00;3.33;;;;;;;19.92;43.32;97506.25;10517124;28;20056;-55
2021/12/13 02:22:08;;;;;;;5.00;3.03;;;;;;;19.90;43.23;97505.75;10507056;28;20040;-55
2021/12/13 02:27:32;;;;;;;5.97;3.10;;;;;;;19.89;43.18;97504.13;10503679;28;20078;-55
2021/12/13 02:32:52;;;;;;;5.00;3.10;;;;;;;19.87;43.13;97505.56;10524713;28;20490;-55
2021/12/13 02:38:13;;;;;;;4.78;3.08;;;;;;;19.86;43.13;97507.47;10523722;28;20052;-55
2021/12/13 02:43:38;;;;;;;4.53;2.95;;;;;;;19.86;43.12;97506.69;10509380;28;20070;-55
2021/12/13 02:49:01;;;;;;;5.03;2.75;;;;;;;19.84;43.09;97509.69;10522239;28;20499;-54
2021/12/13 02:54:27;;;;;;;3.70;2.45;;;;;;;19.83;43.21;97513.50;10503545;28;20087;-55
2021/12/13 02:59:53;;;;;;;4.93;2.75;;;;;;;19.81;43.20;97517.63;10488466;28;20041;-54
2021/12/13 03:05:26;;;;;;;4.10;2.60;;;;;;;19.80;43.21;97518.72;10535164;28;20154;-55
2021/12/13 03:10:49;;;;;;;5.45;3.05;;;;;;;19.79;43.17;97520.63;10507467;28;20059;-55
2021/12/13 03:16:18;;;;;;;3.55;2.70;;;;;;;19.77;43.06;97522.03;10501401;28;20406;-55
2021/12/13 03:21:56;;;;;;;3.13;2.50;;;;;;;19.75;43.16;97530.47;10511421;28;20044;-55
2021/12/13 03:27:47;;;;;;;3.78;2.20;;;;;;;19.74;43.19;97531.56;10529816;28;20048;-55
2021/12/13 03:33:11;;;;;;;3.55;2.40;;;;;;;19.74;43.16;97523.47;10489484;28;20049;-55
2021/12/13 03:38:35;;;;;;;3.90;2.35;;;;;;;19.73;43.18;97527.25;10505525;28;20064;-55
2021/12/13 03:43:59;;;;;;;3.67;2.47;;;;;;;19.72;43.14;97526.47;10500660;28;20049;-54
2021/12/13 03:49:19;;;;;;;4.88;2.40;;;;;;;19.69;43.06;97524.34;10503968;28;20439;-55
2021/12/13 03:54:40;;;;;;;3.97;2.40;;;;;;;19.68;43.02;97519.22;10497273;28;20051;-55
2021/12/13 04:00:00;;;;;;;4.03;2.00;;;;;;;19.67;43.07;97517.66;10502560;28;20102;-55
2021/12/13 04:05:22;;;;;;;3.20;2.15;;;;;;;19.66;42.99;97526.84;10513022;28;20049;-55
2021/12/13 04:10:50;;;;;;;2.80;2.10;;;;;;;19.65;43.05;97533.38;10504018;28;20045;-55
2021/12/13 04:16:17;;;;;;;3.00;2.13;;;;;;;19.62;43.07;97542.91;10494871;28;20049;-54
2021/12/13 04:21:58;;;;;;;4.68;2.30;;;;;;;19.61;43.16;97535.88;10519415;28;20056;-55
2021/12/13 04:27:37;;;;;;;2.40;2.03;;;;;;;19.59;43.09;97543.50;10492001;28;20691;-55
2021/12/13 04:33:02;;;;;;;2.63;1.80;;;;;;;19.58;43.08;97550.00;10444342;28;20508;-55
2021/12/13 04:38:25;;;;;;;4.03;2.00;;;;;;;19.56;43.04;97555.75;10474015;28;20044;-54
2021/12/13 04:43:45;;;;;;;3.08;2.10;;;;;;;19.55;43.08;97551.44;10480018;28;20049;-55
2021/12/13 04:49:12;;;;;;;2.95;2.08;;;;;;;19.54;42.96;97562.53;10472532;28;20055;-55
2021/12/13 04:54:34;;;;;;;2.28;1.88;;;;;;;19.53;43.18;97555.53;10476271;28;20588;-55
2021/12/13 05:00:00;;;;;;;3.05;1.80;;;;;;;19.52;43.05;97564.75;10451587;28;20087;-55
2021/12/13 05:05:20;;;;;;;2.58;1.80;;;;;;;19.50;43.03;97562.38;10476169;28;20049;-54
2021/12/13 05:10:42;;;;;;;2.30;1.70;;;;;;;19.48;42.93;97559.16;10457927;28;20040;-55
2021/12/13 05:16:09;;;;;;;3.17;1.90;;;;;;;19.48;43.10;97569.97;10478587;28;20045;-55
2021/12/13 05:21:38;;;;;;;3.45;1.98;;;;;;;19.46;43.01;97574.88;10465692;28;20037;-55
2021/12/13 05:27:00;;;;;;;2.50;1.80;;;;;;;19.48;43.11;97580.78;10511560;28;20060;-55
2021/12/13 05:32:32;;;;;;;1.77;1.63;;;;;;;19.46;42.93;97572.16;10520825;28;20043;-55
2021/12/13 05:37:54;;;;;;;2.17;1.50;;;;;;;19.47;42.94;97584.59;10512810;28;20067;-55
2021/12/13 05:43:24;;;;;;;1.75;1.58;;;;;;;19.46;42.96;97591.06;10510530;28;20047;-55
2021/12/13 05:48:56;;;;;;;2.30;1.67;;;;;;;19.49;42.89;97597.81;10508539;28;20055;-55
2021/12/13 05:54:26;;;;;;;2.35;1.60;;;;;;;19.52;42.92;97610.69;10519919;28;20427;-55
2021/12/13 06:00:06;;;;;;;1.95;1.70;;;;;;;19.53;42.91;97604.97;10527495;28;20055;-55
2021/12/13 06:05:36;;;;;;;3.10;1.80;;;;;;;19.55;42.96;97613.59;10523397;28;20202;-55
2021/12/13 06:11:02;;;;;;;3.38;1.80;;;;;;;19.59;42.92;97618.41;10525445;28;20051;-56
2021/12/13 06:16:44;;;;;;;2.75;1.38;;;;;;;19.61;43.36;97608.06;10535293;28;20040;-55
2021/12/13 06:22:20;;;;;;;2.15;1.65;;;;;;;19.64;43.31;97608.28;10530512;28;20040;-54
2021/12/13 06:27:47;;;;;;;3.78;1.60;;;;;;;19.69;43.45;97618.16;10518017;28;20059;-55
2021/12/13 06:33:09;;;;;;;1.75;1.33;;;;;;;19.73;43.42;97625.38;10516591;28;20698;-54
2021/12/13 06:38:53;;;;;;;2.90;1.63;;;;;;;19.78;43.29;97629.06;10516503;28;20052;-55
2021/12/13 06:44:21;;;;;;;3.00;1.40;;;;;;;19.79;42.91;97628.75;10520472;28;20071;-55
2021/12/13 06:49:45;;;;;;;1.92;1.33;;;;;;;19.83;42.75;97640.56;10544321;28;20051;-55
2021/12/13 06:55:12;;;;;;;1.83;1.23;;;;;;;19.84;42.85;97636.78;10521987;28;20114;-55
2021/12/13 07:00:32;;;;;;;1.75;1.42;;;;;;;19.88;42.69;97651.28;10486598;28;20048;-55
2021/12/13 07:05:54;;;;;;;2.38;1.45;;;;;;;19.90;42.62;97661.78;10515414;28;20052;-55
2021/12/13 07:11:20;;;;;;;2.47;1.60;;;;;;;19.91;42.55;97658.75;10530237;28;20109;-55
2021/12/13 07:16:42;;;;;;;2.60;1.50;;;;;;;19.91;42.47;97668.78;10533016;28;20078;-56
2021/12/13 07:22:05;;;;;;;2.30;1.38;;;;;;;19.93;42.40;97672.81;10528789;28;20101;-55
2021/12/13 07:27:31;;;;;;;2.05;1.20;;;;;;;19.93;42.40;97675.50;10525661;28;20624;-54
2021/12/13 07:33:01;;;;;;;2.88;1.50;;;;;;;19.94;42.29;97687.91;10532518;28;20090;-56
2021/12/13 07:38:22;;;;;;;3.13;1.58;;;;;;;19.95;42.12;97691.41;10494509;28;20637;-55
2021/12/13 07:43:44;;;;;;;3.38;1.67;;;;;;;19.95;42.11;97692.22;10495933;28;20056;-55
2021/12/13 07:49:08;;;;;;;4.10;1.48;;;;;;;19.95;42.12;97684.13;10496398;28;20051;-55
2021/12/13 07:54:27;;;;;;;4.28;1.75;;;;;;;19.95;42.13;97686.00;10509591;28;20049;-54
2021/12/13 07:59:48;;;;;;;5.00;1.88;;;;;;;19.97;42.06;97691.13;10495390;28;20052;-55
2021/12/13 08:05:12;;;;;;;4.57;1.80;;;;;;;19.95;42.07;97692.22;10521796;28;20047;-55
2021/12/13 08:10:35;;;;;;;4.97;1.60;;;;;;;19.95;42.04;97703.06;10534428;28;20109;-55
2021/12/13 08:15:58;;;;;;;4.10;1.80;;;;;;;19.95;42.23;97697.66;10536269;28;20048;-55
2021/12/13 08:21:24;;;;;;;3.35;1.60;;;;;;;19.97;42.41;97710.84;10527461;28;20710;-55
2021/12/13 08:26:43;;;;;;;5.47;1.60;;;;;;;19.96;42.22;97711.97;10514622;28;20052;-55
2021/12/13 08:32:14;;;;;;;2.38;1.25;;;;;;;19.95;42.19;97719.28;10512967;28;20406;-55
2021/12/13 08:37:37;;;;;;;2.30;1.20;;;;;;;19.95;42.13;97713.88;10513875;28;20044;-55
2021/12/13 08:42:58;;;;;;;2.30;1.30;;;;;;;19.93;42.13;97723.38;10529321;28;20040;-55
2021/12/13 08:48:21;;;;;;;2.00;1.40;;;;;;;19.94;42.12;97733.09;10532891;28;20086;-55
2021/12/13 08:53:41;;;;;;;3.70;1.30;;;;;;;19.92;42.08;97738.81;10544632;28;20479;-55
2021/12/13 08:59:10;;;;;;;2.08;1.33;;;;;;;19.92;42.09;97746.13;10530075;28;20105;-55
2021/12/13 09:04:43;;;;;;;3.15;1.50;;;;;;;19.91;41.98;97742.59;10525955;28;20111;-56
2021/12/13 09:10:04;;;;;;;2.72;1.50;;;;;;;19.90;41.78;97738.31;10518965;28;20103;-55
2021/12/13 09:15:27;;;;;;;2.72;1.30;;;;;;;19.89;41.88;97742.09;10548307;28;20040;-55
2021/12/13 09:20:52;;;;;;;3.05;1.40;;;;;;;19.90;41.85;97751.03;10547743;28;20044;-56
2021/12/13 09:26:19;;;;;;;1.73;1.23;;;;;;;19.90;41.99;97749.13;10533388;28;20044;-55
2021/12/13 09:31:40;;;;;;;5.15;1.40;;;;;;;19.88;42.08;97748.63;10531173;28;20655;-56
2021/12/13 09:36:59;;;;;;;2.33;1.50;;;;;;;19.89;41.78;97742.09;10530631;28;20052;-55
2021/12/13 09:42:19;;;;;;;1.63;1.33;;;;;;;19.87;41.84;97744.31;10518747;28;20055;-56
2021/12/13 09:47:42;;;;;;;1.83;1.27;;;;;;;19.87;41.73;97735.41;10532404;28;20127;-55
2021/12/13 09:53:10;;;;;;;1.75;1.25;;;;;;;19.85;41.58;97738.41;10531543;28;20368;-56
2021/12/13 09:58:47;;;;;;;4.43;1.70;;;;;;;19.85;41.98;97741.09;10547001;28;20036;-56
2021/12/13 10:04:10;;;;;;;3.50;1.42;;;;;;;19.84;41.96;97738.72;10546341;28;20051;-55
2021/12/13 10:09:40;;;;;;;3.50;1.67;;;;;;;19.83;41.85;97740.63;10531555;28;20048;-55
2021/12/13 10:15:10;;;;;;;2.80;1.23;;;;;;;19.81;41.65;97737.41;10505217;28;20056;-55
2021/12/13 10:20:37;;;;;;;5.03;3.53;;;;;;;19.81;40.28;97742.81;10505949;28;20481;-55
2021/12/13 10:25:59;;;;;;;3.47;2.83;;;;;;;19.82;40.48;97747.13;10531269;28;20595;-54
2021/12/13 10:31:33;;;;;;;9.60;4.75;;;;;;;19.84;39.10;97733.31;10531437;28;20052;-55
2021/12/13 10:36:57;;;;;;;6.30;4.30;;;;;;;19.86;38.21;97731.13;10531914;28;20116;-55
2021/12/13 10:42:22;;;;;;;4.22;3.53;;;;;;;19.85;39.08;97733.00;10521358;28;20662;-55
2021/12/13 10:47:44;;;;;;;5.45;4.18;;;;;;;19.78;39.05;97723.69;10518014;28;20048;-55
2021/12/13 10:53:06;;;;;;;5.65;4.22;;;;;;;19.74;39.30;97724.31;10539817;28;20048;-56
2021/12/13 10:58:30;;;;;;;4.60;4.03;;;;;;;19.72;39.37;97725.72;10540289;28;20411;-56
2021/12/13 11:03:51;;;;;;;4.35;3.95;;;;;;;19.70;39.59;97715.19;10534457;28;20075;-56
2021/12/13 11:09:16;;;;;;;7.13;3.47;;;;;;;19.69;39.64;97707.38;10538858;28;20086;-56
2021/12/13 11:14:41;;;;;;;5.78;4.05;;;;;;;19.67;39.77;97698.75;10539081;28;20419;-55
2021/12/13 11:20:14;;;;;;;4.95;3.53;;;;;;;19.66;39.98;97692.56;10536676;28;20044;-55
2021/12/13 11:25:41;;;;;;;4.93;3.67;;;;;;;19.65;40.26;97703.69;10537719;28;20687;-55
2021/12/13 11:31:09;;;;;;;5.15;3.60;;;;;;;19.62;40.28;97694.28;10536393;28;20044;-55
2021/12/13 11:36:50;;;;;;;6.45;3.80;;;;;;;19.61;40.60;97691.88;10536595;28;20044;-55
2021/12/13 11:42:19;;;;;;;6.45;4.18;;;;;;;19.61;40.72;97695.38;10535604;28;20044;-55
2021/12/13 11:48:05;;;;;;;4.18;3.78;;;;;;;19.58;41.04;97697.88;10520071;28;20561;-55
2021/12/13 11:53:52;;;;;;;6.43;3.35;;;;;;;19.59;41.13;97702.19;10535889;28;20036;-55
2021/12/13 11:59:51;;;;;;;5.78;4.03;;;;;;;19.56;41.29;97687.34;10535034;28;20043;-55
2021/12/13 12:05:47;;;;;;;4.63;3.53;;;;;;;19.55;41.34;97694.66;10549548;28;20051;-54
2021/12/13 12:11:10;;;;;;;4.63;3.55;;;;;;;19.53;41.63;97688.75;10524403;28;20078;-54
2021/12/13 12:16:32;;;;;;;5.13;3.65;;;;;;;19.54;42.05;97686.84;10542702;28;20047;-55
2021/12/13 12:22:06;;;;;;;6.60;3.50;;;;;;;19.51;42.22;97688.28;10534284;28;20491;-55
2021/12/13 12:27:33;;;;;;;4.18;3.50;;;;;;;19.52;42.34;97686.34;10492369;28;20059;-55
2021/12/13 12:32:58;;;;;;;3.83;3.33;;;;;;;19.50;42.56;97686.69;10450244;28;20045;-56
2021/12/13 12:38:59;;;;;;;5.05;3.30;;;;;;;19.50;42.86;97688.56;10470371;28;20436;-56
2021/12/13 12:44:22;;;;;;;5.15;3.80;;;;;;;19.47;42.47;97691.88;10445870;28;20393;-55
2021/12/13 12:49:42;;;;;;;4.05;3.65;;;;;;;19.46;42.54;97696.47;10487156;28;20109;-56
2021/12/13 12:55:12;;;;;;;5.13;3.45;;;;;;;19.44;42.72;97693.28;10492894;28;20156;-55
2021/12/13 13:00:32;;;;;;;4.53;2.88;;;;;;;19.43;42.71;97699.78;10488154;28;20404;-55
2021/12/13 13:05:51;;;;;;;7.13;3.17;;;;;;;19.40;42.82;97700.38;10489825;28;20479;-56
2021/12/13 13:16:52;;;;;;;6.38;5.57;;;;;;;18.99;39.67;97695.75;10505629;28;20040;-56
2021/12/13 13:22:33;;;;;;;4.93;4.10;;;;;;;19.07;41.14;97703.19;10471603;28;20052;-55
2021/12/13 13:27:53;;;;;;;4.90;4.38;;;;;;;19.15;41.07;97707.06;10514565;28;20047;-55
2021/12/13 13:33:14;;;;;;;5.30;4.07;;;;;;;19.20;41.38;97725.09;10537794;28;20488;-56
2021/12/13 13:38:34;;;;;;;7.25;4.25;;;;;;;19.20;41.56;97723.19;10551320;28;20052;-55
2021/12/13 13:43:54;;;;;;;4.65;3.88;;;;;;;19.22;41.81;97725.59;10534570;28;20043;-55
2021/12/13 13:49:18;;;;;;;4.13;3.72;;;;;;;19.21;42.00;97718.59;10523896;28;20396;-55
2021/12/13 13:54:38;;;;;;;4.15;3.80;;;;;;;19.21;41.64;97711.31;10514828;28;20063;-56
2021/12/13 13:59:59;;;;;;;5.20;3.78;;;;;;;19.20;41.93;97722.41;10514168;28;20042;-53
2021/12/13 14:05:18;;;;;;;4.45;3.50;;;;;;;19.20;42.39;97727.81;10502660;28;20060;-54
2021/12/13 14:10:38;;;;;;;5.35;3.80;;;;;;;19.20;42.57;97728.59;10501042;28;20795;-55
2021/12/13 14:15:58;;;;;;;5.43;3.80;;;;;;;19.21;42.80;97729.38;10520850;28;20651;-55
2021/12/13 14:21:21;;;;;;;6.38;3.80;;;;;;;19.22;42.73;97725.59;10526599;28;20052;-55
2021/12/13 14:26:41;;;;;;;3.90;3.50;;;;;;;19.24;42.82;97732.31;10516402;28;20059;-55
2021/12/13 14:32:00;;;;;;;4.32;3.60;;;;;;;19.25;42.96;97743.91;10514437;28;20047;-55
2021/12/13 14:37:20;;;;;;;6.47;3.70;;;;;;;19.26;42.91;97751.72;10525579;28;20044;-55
2021/12/13 14:42:39;;;;;;;3.33;3.03;;;;;;;19.27;43.04;97747.13;10530285;28;20043;-55
2021/12/13 14:48:03;;;;;;;4.97;3.30;;;;;;;19.28;43.43;97751.41;10535023;28;20033;-54
2021/12/13 14:53:28;;;;;;;4.80;3.30;;;;;;;19.33;43.79;97751.34;10523070;28;20044;-55
2021/12/13 14:58:53;;;;;;;8.50;3.55;;;;;;;19.37;43.75;97755.03;10518805;28;20048;-56
2021/12/13 15:04:22;;;;;;;4.00;3.05;;;;;;;19.39;44.07;97758.25;10513992;28;20049;-54
2021/12/13 15:09:47;;;;;;;4.03;2.90;;;;;;;19.46;44.37;97776.75;10517473;28;20040;-55
2021/12/13 15:15:09;;;;;;;5.70;3.30;;;;;;;19.50;44.21;97775.03;10495993;28;20053;-55
2021/12/13 15:20:32;;;;;;;3.88;3.10;;;;;;;19.52;44.40;97772.84;10509384;28;20423;-55
2021/12/13 15:25:58;;;;;;;4.32;3.17;;;;;;;19.55;44.47;97778.44;10555917;28;20052;-55
2021/12/13 15:31:21;;;;;;;3.17;2.58;;;;;;;19.58;44.80;97785.16;10519953;28;20060;-54
2021/12/13 15:36:40;;;;;;;5.43;3.08;;;;;;;19.63;45.07;97792.38;10506492;28;20093;-55
2021/12/13 15:42:01;;;;;;;6.95;3.28;;;;;;;19.68;45.02;97800.38;10529177;28;20434;-54
2021/12/13 15:47:45;;;;;;;4.82;2.72;;;;;;;19.75;44.77;97806.22;10500679;28;20796;-53
2021/12/13 15:53:08;;;;;;;9.50;2.90;;;;;;;19.80;44.89;97810.72;10498698;28;20071;-55
2021/12/13 15:58:33;;;;;;;5.75;2.70;;;;;;;19.84;44.94;97804.41;10519109;28;20056;-56
2021/12/13 16:04:15;;;;;;;8.07;3.08;;;;;;;19.89;44.88;97817.81;10518599;28;20044;-54
2021/12/13 16:10:04;;;;;;;7.88;2.90;;;;;;;19.95;45.17;97811.22;10548191;28;20048;-55
2021/12/13 16:15:27;;;;;;;7.38;2.75;;;;;;;20.01;45.27;97811.09;10529307;28;20053;-55
2021/12/13 16:20:49;;;;;;;11.35;2.75;;;;;;;20.05;45.07;97812.91;10533933;28;20048;-54
2021/12/13 16:26:11;;;;;;;5.03;2.65;;;;;;;20.08;45.48;97815.00;10524940;28;20063;-53
2021/12/13 16:31:32;;;;;;;3.92;2.70;;;;;;;20.12;45.40;97826.03;10542745;28;20032;-54
2021/12/13 16:36:56;;;;;;;11.85;2.70;;;;;;;20.17;45.44;97825.94;10528426;28;20028;-52
2021/12/13 16:42:15;;;;;;;6.45;2.70;;;;;;;20.23;45.72;97834.72;10505187;28;20044;-54
2021/12/13 16:47:35;;;;;;;4.47;2.97;;;;;;;20.27;45.66;97828.41;10493375;28;20052;-53
2021/12/13 16:52:57;;;;;;;3.78;2.60;;;;;;;20.31;45.50;97829.41;10542157;28;20089;-53
2021/12/13 16:58:17;;;;;;;5.78;2.63;;;;;;;20.38;45.30;97844.41;10510885;28;20117;-55
2021/12/13 17:03:37;;;;;;;6.03;2.85;;;;;;;20.44;45.71;97843.19;10508253;28;20052;-55
2021/12/13 17:09:01;;;;;;;3.92;2.83;;;;;;;20.52;45.95;97845.19;10523011;28;20036;-54
2021/12/13 17:14:23;;;;;;;3.63;2.40;;;;;;;20.57;45.86;97836.97;10511914;28;20036;-55
2021/12/13 17:19:47;;;;;;;3.72;2.42;;;;;;;20.62;46.08;97844.19;10490836;28;20052;-54
2021/12/13 17:25:07;;;;;;;13.52;2.60;;;;;;;20.67;46.02;97847.56;10523457;28;20052;-57
2021/12/13 17:30:30;;;;;;;9.98;2.85;;;;;;;20.70;46.31;97852.41;10530168;28;20044;-53
2021/12/13 17:35:50;;;;;;;5.25;2.53;;;;;;;20.76;46.16;97841.44;10531480;28;20048;-55
2021/12/13 17:41:10;;;;;;;4.65;2.50;;;;;;;20.82;46.48;97848.34;10524158;28;20520;-54
2021/12/13 17:46:29;;;;;;;5.03;2.50;;;;;;;20.86;46.44;97854.75;10519309;28;20058;-54
2021/12/13 17:51:50;;;;;;;4.45;2.42;;;;;;;20.91;46.38;97860.03;10506866;28;20102;-54
2021/12/13 17:57:09;;;;;;;5.32;2.60;;;;;;;20.94;46.33;97854.81;10493552;28;20601;-52
2021/12/13 18:02:29;;;;;;;6.60;2.70;;;;;;;20.96;46.44;97853.72;10546720;28;20048;-54
2021/12/13 18:07:49;;;;;;;9.65;2.58;;;;;;;-146.19;100.00;65364.44;10528621;28;20053;-53
2021/12/13 18:13:14;;;;;;;8.35;2.88;;;;;;;-146.19;100.00;65364.44;10506252;28;20048;-54
2021/12/13 18:18:34;;;;;;;8.27;2.80;;;;;;;-146.19;100.00;65364.44;10521520;28;20692;-52
2021/12/13 18:23:54;;;;;;;4.90;4.38;;;;;;;20.31;35.15;97863.78;10516867;28;20048;-53
2021/12/13 18:29:14;;;;;;;4.80;4.13;;;;;;;20.31;35.15;97863.78;10505127;28;20507;-52
2021/12/13 18:34:37;;;;;;;3.65;3.35;;;;;;;20.17;40.45;97863.81;10502462;28;20054;-52
2021/12/13 18:39:56;;;;;;;3.40;3.10;;;;;;;20.39;40.24;97859.56;10520823;28;20499;-50
2021/12/13 18:45:25;;;;;;;5.05;3.47;;;;;;;20.53;40.57;97863.03;10513418;28;20424;-52
2021/12/13 18:50:49;;;;;;;3.08;2.78;;;;;;;20.63;40.87;97867.47;10526481;28;20455;-52
2021/12/13 18:56:17;;;;;;;3.42;2.80;;;;;;;20.69;41.09;97872.44;10519339;28;20032;-62
2021/12/13 19:01:37;;;;;;;3.63;2.70;;;;;;;20.71;41.51;97875.63;10495037;28;20689;-61
2021/12/13 19:07:00;;;;;;;3.72;2.70;;;;;;;20.74;41.79;97880.47;10490724;28;20044;-57
2021/12/13 19:12:24;;;;;;;6.50;2.58;;;;;;;20.74;41.97;97875.03;10504351;28;20052;-56
2021/12/13 19:17:51;;;;;;;5.25;2.58;;;;;;;20.77;42.21;97880.94;10499612;28;20052;-56
2021/12/13 19:23:22;;;;;;;3.83;2.45;;;;;;;20.78;42.57;97879.84;10501000;28;20056;-56
2021/12/13 19:28:57;;;;;;;3.90;2.55;;;;;;;20.79;42.56;97884.16;10535799;28;20465;-55
2021/12/13 19:34:25;;;;;;;4.00;2.22;;;;;;;20.78;42.90;97891.50;10518027;28;20048;-56
2021/12/13 19:39:52;;;;;;;4.53;2.45;;;;;;;20.80;43.27;97883.84;10517749;28;20042;-55
2021/12/13 19:45:26;;;;;;;4.15;2.35;;;;;;;20.82;43.56;97884.34;10499802;28;20052;-54
2021/12/13 19:50:57;;;;;;;2.35;2.03;;;;;;;20.83;43.80;97883.22;10501648;28;20051;-56
2021/12/13 19:56:23;;;;;;;3.95;2.60;;;;;;;20.84;43.80;97879.44;10498507;28;20066;-54
2021/12/13 20:01:48;;;;;;;4.22;2.47;;;;;;;20.86;44.13;97876.41;10522627;28;20048;-53
2021/12/13 20:07:16;;;;;;;4.00;2.40;;;;;;;20.85;44.70;97866.69;10502831;28;20043;-52
2021/12/13 20:12:57;;;;;;;3.85;2.03;;;;;;;20.86;44.78;97871.00;10517375;28;20036;-54
2021/12/13 20:18:20;;;;;;;4.18;2.08;;;;;;;20.86;45.03;97873.72;10509613;28;20040;-54
2021/12/13 20:24:23;;;;;;;4.00;2.22;;;;;;;20.85;45.12;97858.56;10502355;28;20385;-54
2021/12/13 20:29:49;;;;;;;6.43;2.47;;;;;;;20.85;45.16;97863.97;10500963;28;20145;-53
2021/12/13 20:35:23;;;;;;;4.00;2.55;;;;;;;20.85;45.39;97862.06;10515657;28;20069;-56
2021/12/13 20:40:58;;;;;;;4.97;2.60;;;;;;;20.84;45.47;97865.88;10524460;28;20059;-53
2021/12/13 20:46:24;;;;;;;3.88;2.53;;;;;;;20.84;45.51;97870.50;10491955;28;20106;-54
2021/12/13 20:51:54;;;;;;;6.25;2.67;;;;;;;20.85;45.23;97872.09;10500462;28;20039;-58
2021/12/13 20:57:23;;;;;;;6.00;2.60;;;;;;;20.83;45.25;97866.97;10509783;28;20135;-58
2021/12/13 21:02:47;;;;;;;8.40;3.00;;;;;;;20.83;45.49;97869.69;10512574;28;20074;-56
2021/12/13 21:08:11;;;;;;;6.25;2.80;;;;;;;20.84;45.39;97863.19;10534647;28;20037;-56
2021/12/13 21:13:36;;;;;;;4.53;2.90;;;;;;;20.83;45.52;97858.84;10527493;28;20041;-56
2021/12/13 21:19:04;;;;;;;6.97;2.70;;;;;;;20.82;45.64;97864.59;10513955;28;20056;-55
2021/12/13 21:24:29;;;;;;;5.43;2.80;;;;;;;20.82;45.52;97862.69;10501659;28;20072;-58
2021/12/13 21:29:52;;;;;;;8.15;2.30;;;;;;;20.80;45.62;97853.28;10512614;28;20071;-54
2021/12/13 21:36:07;;;;;;;5.43;2.80;;;;;;;20.81;45.41;97858.34;10522055;28;20131;-55
2021/12/13 21:41:15;;;;;;;4.50;2.63;;;;;;;20.79;45.43;97857.06;10518335;28;20036;-55
2021/12/13 21:47:03;;;;;;;5.32;2.55;;;;;;;20.77;45.54;97854.66;10519003;28;20052;-54
2021/12/13 21:52:30;;;;;;;3.90;2.43;;;;;;;20.77;45.50;97851.16;10523452;28;20567;-54
2021/12/13 21:57:54;;;;;;;28.67;8.38;;;;;;;20.76;45.56;97854.97;10526345;28;20297;-54
2021/12/13 22:03:16;;;;;;;7.57;3.70;;;;;;;20.74;45.60;97853.38;10532678;28;20707;-54
2021/12/13 22:08:42;;;;;;;7.30;3.22;;;;;;;20.72;45.54;97855.59;10528278;28;20052;-54
2021/12/13 22:14:28;;;;;;;8.13;3.33;;;;;;;20.72;45.70;97857.50;10529198;28;20040;-54
2021/12/13 22:19:55;;;;;;;8.45;3.08;;;;;;;20.70;45.66;97865.94;10527866;28;20684;-54
2021/12/13 22:25:59;;;;;;;7.15;2.92;;;;;;;20.67;45.67;97869.25;10522913;28;20754;-54
2021/12/13 22:31:27;;;;;;;5.70;2.90;;;;;;;20.66;45.87;97862.25;10514582;28;20427;-54
2021/12/13 22:36:48;;;;;;;6.53;3.00;;;;;;;20.66;45.82;97861.41;10527676;28;20054;-54
2021/12/13 22:42:11;;;;;;;6.15;3.13;;;;;;;20.66;45.87;97866.84;10526160;28;20508;-54
2021/12/13 22:47:34;;;;;;;5.35;2.80;;;;;;;20.64;46.08;97863.63;10522592;28;20048;-54
2021/12/13 22:52:54;;;;;;;4.80;2.65;;;;;;;20.63;46.02;97859.34;10525434;28;20442;-54
2021/12/13 22:58:20;;;;;;;3.97;2.28;;;;;;;20.60;46.20;97847.22;10506062;28;20048;-54
2021/12/13 23:03:44;;;;;;;6.05;2.95;;;;;;;20.59;46.06;97851.00;10494922;28;20063;-54
2021/12/13 23:09:41;;;;;;;4.47;2.70;;;;;;;20.58;46.07;97846.69;10506322;28;20669;-54
2021/12/13 23:15:01;;;;;;;5.25;2.85;;;;;;;20.56;45.99;97835.34;10517936;28;20059;-53
2021/12/13 23:20:24;;;;;;;5.70;2.65;;;;;;;20.54;46.02;97832.97;10532299;28;20450;-55
2021/12/13 23:25:46;;;;;;;5.65;2.80;;;;;;;20.54;45.98;97834.84;10498494;28;20071;-54
2021/12/13 23:31:10;;;;;;;5.15;2.78;;;;;;;20.51;46.01;97838.19;10516384;28;20047;-54
2021/12/13 23:36:37;;;;;;;5.40;2.50;;;;;;;20.49;45.94;97835.78;10502004;28;20458;-54
2021/12/13 23:47:36;;;;;;;5.60;2.38;;;;;;;20.45;45.92;97832.06;10498063;28;20044;-54
2021/12/13 23:53:01;;;;;;;4.07;2.17;;;;;;;20.45;46.03;97831.28;10513921;28;20419;-54
2021/12/13 23:58:31;;;;;;;4.00;2.10;;;;;;;20.43;45.78;97828.09;10507644;28;20518;-54
